地図

経路データ

SID SEASON NUMBER BASIN SUBBASIN NAME ISO_TIME NATURE LAT LON WMO_WIND WMO_PRES WMO_AGENCY TRACK_TYPE DIST2LAND LANDFALL IFLAG USA_AGENCY USA_ATCF_ID USA_LAT USA_LON USA_RECORD USA_STATUS USA_WIND USA_PRES USA_SSHS USA_R34_NE USA_R34_SE USA_R34_SW USA_R34_NW USA_R50_NE USA_R50_SE USA_R50_SW USA_R50_NW USA_R64_NE USA_R64_SE USA_R64_SW USA_R64_NW USA_POCI USA_ROCI USA_RMW USA_EYE TOKYO_LAT TOKYO_LON TOKYO_GRADE TOKYO_WIND TOKYO_PRES TOKYO_R50_DIR TOKYO_R50_LONG TOKYO_R50_SHORT TOKYO_R30_DIR TOKYO_R30_LONG TOKYO_R30_SHORT TOKYO_LAND CMA_LAT CMA_LON CMA_CAT CMA_WIND CMA_PRES HKO_LAT HKO_LON HKO_CAT HKO_WIND HKO_PRES NEWDELHI_LAT NEWDELHI_LON NEWDELHI_GRADE NEWDELHI_WIND NEWDELHI_PRES NEWDELHI_CI NEWDELHI_DP NEWDELHI_POCI REUNION_LAT REUNION_LON REUNION_TYPE REUNION_WIND REUNION_PRES REUNION_TNUM REUNION_CI REUNION_RMW REUNION_R34_NE REUNION_R34_SE REUNION_R34_SW REUNION_R34_NW REUNION_R50_NE REUNION_R50_SE REUNION_R50_SW REUNION_R50_NW REUNION_R64_NE REUNION_R64_SE REUNION_R64_SW REUNION_R64_NW BOM_LAT BOM_LON BOM_TYPE BOM_WIND BOM_PRES BOM_TNUM BOM_CI BOM_RMW BOM_R34_NE BOM_R34_SE BOM_R34_SW BOM_R34_NW BOM_R50_NE BOM_R50_SE BOM_R50_SW BOM_R50_NW BOM_R64_NE BOM_R64_SE BOM_R64_SW BOM_R64_NW BOM_ROCI BOM_POCI BOM_EYE BOM_POS_METHOD BOM_PRES_METHOD NADI_LAT NADI_LON NADI_CAT NADI_WIND NADI_PRES WELLINGTON_LAT WELLINGTON_LON WELLINGTON_WIND WELLINGTON_PRES DS824_LAT DS824_LON DS824_STAGE DS824_WIND DS824_PRES TD9636_LAT TD9636_LON TD9636_STAGE TD9636_WIND TD9636_PRES TD9635_LAT TD9635_LON TD9635_WIND TD9635_PRES TD9635_ROCI NEUMANN_LAT NEUMANN_LON NEUMANN_CLASS NEUMANN_WIND NEUMANN_PRES MLC_LAT MLC_LON MLC_CLASS MLC_WIND MLC_PRES USA_GUST BOM_GUST BOM_GUST_PER REUNION_GUST REUNION_GUST_PER USA_SEAHGT USA_SEARAD_NE USA_SEARAD_SE USA_SEARAD_SW USA_SEARAD_NW STORM_SPEED STORM_DIR
1921224N14148 1921 38 WP MM NOT_NAMED 1921-08-11 22:00:00 NR 14.4000 148.400 main 1851 1851 __________O___ -1 14.4000 148.400 4 6 320
1921224N14148 1921 38 WP MM NOT_NAMED 1921-08-12 00:00:00 NR 14.5555 148.264 main 1873 1872 __________P___ -1 14.5555 148.264 4 6 320
1921224N14148 1921 38 WP MM NOT_NAMED 1921-08-12 03:00:00 NR 14.7867 148.060 main 1894 1894 __________P___ -1 14.7867 148.060 4 6 319
1921224N14148 1921 38 WP MM NOT_NAMED 1921-08-12 06:00:00 NR 15.0125 147.860 main 1916 1916 __________P___ -1 15.0125 147.860 4 6 319
1921224N14148 1921 38 WP MM NOT_NAMED 1921-08-12 09:00:00 NR 15.2299 147.664 main 1938 1938 __________P___ -1 15.2299 147.664 4 6 319
1921224N14148 1921 38 WP MM NOT_NAMED 1921-08-12 10:00:00 NR 15.3000 147.600 main 1949 1949 __________O___ -1 15.3000 147.600 4 6 319
1921224N14148 1921 38 WP MM NOT_NAMED 1921-08-12 12:00:00 NR 15.4368 147.474 main 1960 1960 __________P___ -1 15.4368 147.474 4 6 318
1921224N14148 1921 38 WP MM NOT_NAMED 1921-08-12 15:00:00 NR 15.6417 147.286 main 1982 1994 __________P___ -1 15.6417 147.286 4 6 319
1921224N14148 1921 38 WP MM NOT_NAMED 1921-08-12 18:00:00 NR 15.8603 147.090 main 2016 2016 __________P___ -1 15.8603 147.090 4 6 320
1921224N14148 1921 38 WP MM NOT_NAMED 1921-08-12 21:00:00 NR 16.1082 146.877 main 2038 2038 __________P___ -1 16.1082 146.877 4 7 320
1921224N14148 1921 38 WP MM NOT_NAMED 1921-08-12 22:00:00 NR 16.2000 146.800 main 2049 2049 __________O___ -1 16.2000 146.800 4 8 321
1921224N14148 1921 38 WP MM NOT_NAMED 1921-08-13 00:00:00 NR 16.3996 146.626 main 2072 2072 __________P___ -1 16.3996 146.626 4 8 321
1921224N14148 1921 38 WP MM NOT_NAMED 1921-08-13 03:00:00 NR 16.7305 146.346 main 2106 2081 __________P___ -1 16.7305 146.346 4 9 322
1921224N14148 1921 38 WP MM NOT_NAMED 1921-08-13 06:00:00 NR 17.0906 146.059 main 2081 2029 __________P___ -1 17.0906 146.059 4 9 324
1921224N14148 1921 38 WP MM NOT_NAMED 1921-08-13 09:00:00 NR 17.4705 145.785 main 2029 2015 __________P___ -1 17.4705 145.785 4 9 326
1921224N14148 1921 38 WP MM NOT_NAMED 1921-08-13 10:00:00 NR 17.6000 145.700 main 2015 1988 __________O___ -1 17.6000 145.700 4 9 329
1921224N14148 1921 38 WP MM NOT_NAMED 1921-08-13 12:00:00 NR 17.8420 145.549 main 1988 1939 __________P___ -1 17.8420 145.549 4 9 331
1921224N14148 1921 38 WP MM NOT_NAMED 1921-08-13 15:00:00 NR 18.2175 145.342 main 1939 1891 __________P___ -1 18.2175 145.342 4 9 334
1921224N14148 1921 38 WP MM NOT_NAMED 1921-08-13 18:00:00 NR 18.6161 145.150 main 1891 1845 __________P___ -1 18.6161 145.150 4 9 337
1921224N14148 1921 38 WP MM NOT_NAMED 1921-08-13 21:00:00 NR 19.0474 144.963 main 1845 1820 __________P___ -1 19.0474 144.963 4 10 338
1921224N14148 1921 38 WP MM NOT_NAMED 1921-08-13 22:00:00 NR 19.2000 144.900 main 1820 1785 __________O___ -1 19.2000 144.900 4 10 338
1921224N14148 1921 38 WP MM NOT_NAMED 1921-08-14 00:00:00 NR 19.5241 144.764 main 1785 1726 __________P___ -1 19.5241 144.764 4 11 339
1921224N14148 1921 38 WP MM NOT_NAMED 1921-08-14 03:00:00 NR 20.0418 144.560 main 1726 1656 __________P___ -1 20.0418 144.560 4 11 340
1921224N14148 1921 38 WP MM NOT_NAMED 1921-08-14 06:00:00 NR 20.5807 144.359 main 1656 1596 __________P___ -1 20.5807 144.359 4 11 341
1921224N14148 1921 38 WP MM NOT_NAMED 1921-08-14 09:00:00 NR 21.1222 144.163 main 1596 1572 __________P___ -1 21.1222 144.163 4 11 342
1921224N14148 1921 38 WP MM NOT_NAMED 1921-08-14 10:00:00 NR 21.3000 144.100 main 1572 1526 __________O___ -1 21.3000 144.100 4 11 341
1921224N14148 1921 38 WP MM NOT_NAMED 1921-08-14 12:00:00 NR 21.6547 143.970 main 1526 1467 __________P___ -1 21.6547 143.970 4 11 341
1921224N14148 1921 38 WP MM NOT_NAMED 1921-08-14 15:00:00 NR 22.1809 143.781 main 1467 1407 __________P___ -1 22.1809 143.781 4 11 342
1921224N14148 1921 38 WP MM NOT_NAMED 1921-08-14 18:00:00 NR 22.6861 143.604 main 1407 1348 __________P___ -1 22.6861 143.604 4 10 342
1921224N14148 1921 38 WP MM NOT_NAMED 1921-08-14 21:00:00 NR 23.1547 143.447 main 1348 1337 __________P___ -1 23.1547 143.447 4 10 343
1921224N14148 1921 38 WP MM NOT_NAMED 1921-08-14 22:00:00 NR 23.3000 143.400 main 1337 1302 __________O___ -1 23.3000 143.400 4 9 344
1921224N14148 1921 38 WP MM NOT_NAMED 1921-08-15 00:00:00 NR 23.5701 143.321 main 1302 1267 __________P___ -1 23.5701 143.321 4 8 345
1921224N14148 1921 38 WP MM NOT_NAMED 1921-08-15 03:00:00 NR 23.9375 143.222 main 1267 1222 __________P___ -1 23.9375 143.222 4 7 346
1921224N14148 1921 38 WP MM NOT_NAMED 1921-08-15 06:00:00 NR 24.2736 143.132 main 1222 1187 __________P___ -1 24.2736 143.132 4 7 346
1921224N14148 1921 38 WP MM NOT_NAMED 1921-08-15 09:00:00 NR 24.5940 143.036 main 1187 1176 __________P___ -1 24.5940 143.036 4 7 345
1921224N14148 1921 38 WP MM NOT_NAMED 1921-08-15 10:00:00 NR 24.7000 143.000 main 1176 1154 __________O___ -1 24.7000 143.000 4 7 349
1921224N14148 1921 38 WP MM NOT_NAMED 1921-08-15 12:00:00 NR 24.9139 142.957 main 1154 1120 __________P___ -1 24.9139 142.957 4 7 349
1921224N14148 1921 38 WP MM NOT_NAMED 1921-08-15 15:00:00 NR 25.2283 142.882 main 1120 1085 __________P___ -1 25.2283 142.882 4 7 344
1921224N14148 1921 38 WP MM NOT_NAMED 1921-08-15 18:00:00 NR 25.5467 142.750 main 1085 1033 __________P___ -1 25.5467 142.750 4 7 333
1921224N14148 1921 38 WP MM NOT_NAMED 1921-08-15 21:00:00 NR 25.8822 142.512 main 1033 1019 __________P___ -1 25.8822 142.512 4 8 325
1921224N14148 1921 38 WP MM NOT_NAMED 1921-08-15 22:00:00 NR 26.0000 142.400 main 1019 978 __________O___ -1 26.0000 142.400 4 10 318
1921224N14148 1921 38 WP MM NOT_NAMED 1921-08-16 00:00:00 NR 26.2706 142.125 main 978 921 __________P___ -1 26.2706 142.125 4 12 314
1921224N14148 1921 38 WP MM NOT_NAMED 1921-08-16 03:00:00 NR 26.6956 141.599 main 921 861 __________P___ -1 26.6956 141.599 4 13 309
1921224N14148 1921 38 WP MM NOT_NAMED 1921-08-16 06:00:00 NR 27.1132 140.963 main 861 781 __________P___ -1 27.1132 140.963 4 14 303
1921224N14148 1921 38 WP MM NOT_NAMED 1921-08-16 09:00:00 NR 27.4895 140.249 main 781 761 __________P___ -1 27.4895 140.249 4 15 300
1921224N14148 1921 38 WP MM NOT_NAMED 1921-08-16 10:00:00 NR 27.6000 140.000 main 761 717 __________O___ -1 27.6000 140.000 4 15 294
1921224N14148 1921 38 WP MM NOT_NAMED 1921-08-16 12:00:00 NR 27.7874 139.498 main 717 662 __________P___ -1 27.7874 139.498 4 15 290
1921224N14148 1921 38 WP MM NOT_NAMED 1921-08-16 15:00:00 NR 28.0181 138.696 main 662 613 __________P___ -1 28.0181 138.696 4 15 286
1921224N14148 1921 38 WP MM NOT_NAMED 1921-08-16 18:00:00 NR 28.2015 137.870 main 613 571 __________P___ -1 28.2015 137.870 4 15 283
1921224N14148 1921 38 WP MM NOT_NAMED 1921-08-16 21:00:00 NR 28.3535 137.059 main 571 565 __________P___ -1 28.3535 137.059 4 14 282
1921224N14148 1921 38 WP MM NOT_NAMED 1921-08-16 22:00:00 NR 28.4000 136.800 main 565 548 __________O___ -1 28.4000 136.800 4 13 283
1921224N14148 1921 38 WP MM NOT_NAMED 1921-08-17 00:00:00 NR 28.5015 136.323 main 548 510 __________P___ -1 28.5015 136.323 4 13 283
1921224N14148 1921 38 WP MM NOT_NAMED 1921-08-17 03:00:00 NR 28.6361 135.640 main 510 451 __________P___ -1 28.6361 135.640 4 12 282
1921224N14148 1921 38 WP MM NOT_NAMED 1921-08-17 06:00:00 NR 28.7552 134.980 main 451 394 __________P___ -1 28.7552 134.980 4 12 281
1921224N14148 1921 38 WP MM NOT_NAMED 1921-08-17 09:00:00 NR 28.8646 134.322 main 394 380 __________P___ -1 28.8646 134.322 4 12 281
1921224N14148 1921 38 WP MM NOT_NAMED 1921-08-17 10:00:00 NR 28.9000 134.100 main 380 341 __________O___ -1 28.9000 134.100 4 13 280
1921224N14148 1921 38 WP MM NOT_NAMED 1921-08-17 12:00:00 NR 28.9812 133.587 main 341 289 __________P___ -1 28.9812 133.587 4 14 280
1921224N14148 1921 38 WP MM NOT_NAMED 1921-08-17 15:00:00 NR 29.0966 132.810 main 289 241 __________P___ -1 29.0966 132.810 4 13 279
1921224N14148 1921 38 WP MM NOT_NAMED 1921-08-17 18:00:00 NR 29.1978 132.081 main 241 204 __________P___ -1 29.1978 132.081 4 12 279
1921224N14148 1921 38 WP MM NOT_NAMED 1921-08-17 21:00:00 NR 29.2786 131.468 main 204 198 __________P___ -1 29.2786 131.468 4 10 279
1921224N14148 1921 38 WP MM NOT_NAMED 1921-08-17 22:00:00 NR 29.3000 131.300 main 198 193 __________O___ -1 29.3000 131.300 4 7 278
1921224N14148 1921 38 WP MM NOT_NAMED 1921-08-18 00:00:00 NR 29.3320 131.055 main 193 178 __________P___ -1 29.3320 131.055 4 5 278
1921224N14148 1921 38 WP MM NOT_NAMED 1921-08-18 03:00:00 NR 29.3627 130.813 main 178 178 __________P___ -1 29.3627 130.813 4 3 278
1921224N14148 1921 38 WP MM NOT_NAMED 1921-08-18 06:00:00 NR 29.3809 130.665 main 178 178 __________P___ -1 29.3809 130.665 4 2 278
1921224N14148 1921 38 WP MM NOT_NAMED 1921-08-18 09:00:00 NR 29.3948 130.545 main 179 179 __________P___ -1 29.3948 130.545 4 2 278
1921224N14148 1921 38 WP MM NOT_NAMED 1921-08-18 10:00:00 NR 29.4000 130.500 main 179 179 __________O___ -1 29.4000 130.500 4 3 278
1921224N14148 1921 38 WP MM NOT_NAMED 1921-08-18 12:00:00 NR 29.4163 130.374 main 180 180 __________P___ -1 29.4163 130.374 4 3 278
1921224N14148 1921 38 WP MM NOT_NAMED 1921-08-18 15:00:00 NR 29.4410 130.179 main 184 177 __________P___ -1 29.4410 130.179 4 4 278
1921224N14148 1921 38 WP MM NOT_NAMED 1921-08-18 18:00:00 NR 29.4659 129.961 main 180 184 __________P___ -1 29.4659 129.961 4 4 277
1921224N14148 1921 38 WP MM NOT_NAMED 1921-08-18 21:00:00 NR 29.4914 129.700 main 192 192 __________P___ -1 29.4914 129.700 4 5 276
1921224N14148 1921 38 WP MM NOT_NAMED 1921-08-18 22:00:00 NR 29.5000 129.600 main 197 197 __________O___ -1 29.5000 129.600 4 6 275
1921224N14148 1921 38 WP MM NOT_NAMED 1921-08-19 00:00:00 NR 29.5142 129.373 main 204 204 __________P___ -1 29.5142 129.373 4 6 274
1921224N14148 1921 38 WP MM NOT_NAMED 1921-08-19 03:00:00 NR 29.5354 128.989 main 221 221 __________P___ -1 29.5354 128.989 4 7 274
1921224N14148 1921 38 WP MM NOT_NAMED 1921-08-19 06:00:00 NR 29.5590 128.571 main 235 241 __________P___ -1 29.5590 128.571 4 7 274
1921224N14148 1921 38 WP MM NOT_NAMED 1921-08-19 09:00:00 NR 29.5883 128.142 main 268 268 __________P___ -1 29.5883 128.142 4 7 275
1921224N14148 1921 38 WP MM NOT_NAMED 1921-08-19 10:00:00 NR 29.6000 128.000 main 276 276 __________O___ -1 29.6000 128.000 4 7 277
1921224N14148 1921 38 WP MM NOT_NAMED 1921-08-19 12:00:00 NR 29.6324 127.741 main 298 298 __________P___ -1 29.6324 127.741 4 7 279
1921224N14148 1921 38 WP MM NOT_NAMED 1921-08-19 15:00:00 NR 29.6877 127.354 main 315 324 __________P___ -1 29.6877 127.354 4 7 279
1921224N14148 1921 38 WP MM NOT_NAMED 1921-08-19 18:00:00 NR 29.7429 126.957 main 349 352 __________P___ -1 29.7429 126.957 4 7 278
1921224N14148 1921 38 WP MM NOT_NAMED 1921-08-19 21:00:00 NR 29.7885 126.543 main 379 379 __________P___ -1 29.7885 126.543 4 7 277
1921224N14148 1921 38 WP MM NOT_NAMED 1921-08-19 22:00:00 NR 29.8000 126.400 main 379 379 __________O___ -1 29.8000 126.400 4 8 273
1921224N14148 1921 38 WP MM NOT_NAMED 1921-08-20 00:00:00 NR 29.8112 126.105 main 379 354 __________P___ -1 29.8112 126.105 4 8 271
1921224N14148 1921 38 WP MM NOT_NAMED 1921-08-20 03:00:00 NR 29.8154 125.645 main 354 316 __________P___ -1 29.8154 125.645 4 8 270
1921224N14148 1921 38 WP MM NOT_NAMED 1921-08-20 06:00:00 NR 29.8103 125.165 main 316 269 __________P___ -1 29.8103 125.165 4 8 269
1921224N14148 1921 38 WP MM NOT_NAMED 1921-08-20 09:00:00 NR 29.8022 124.669 main 269 250 __________P___ -1 29.8022 124.669 4 9 269
1921224N14148 1921 38 WP MM NOT_NAMED 1921-08-20 10:00:00 NR 29.8000 124.500 main 250 221 __________O___ -1 29.8000 124.500 4 9 270
1921224N14148 1921 38 WP MM NOT_NAMED 1921-08-20 12:00:00 NR 29.8000 124.154 main 221 163 __________P___ -1 29.8000 124.154 4 9 270
1921224N14148 1921 38 WP MM NOT_NAMED 1921-08-20 15:00:00 NR 29.8000 123.621 main 163 115 __________P___ -1 29.8000 123.621 4 9 270
1921224N14148 1921 38 WP MM NOT_NAMED 1921-08-20 18:00:00 NR 29.8000 123.087 main 115 67 __________P___ -1 29.8000 123.087 4 9 270
1921224N14148 1921 38 WP MM NOT_NAMED 1921-08-20 21:00:00 NR 29.8000 122.567 main 67 48 __________P___ -1 29.8000 122.567 4 9 270
1921224N14148 1921 38 WP MM NOT_NAMED 1921-08-20 22:00:00 NR 29.8000 122.400 main 48 19 __________O___ -1 29.8000 122.400 4 8 270
1921224N14148 1921 38 WP MM NOT_NAMED 1921-08-21 00:00:00 NR 29.7994 122.080 main 19 0 __________P___ -1 29.7994 122.080 4 8 270
1921224N14148 1921 38 WP MM NOT_NAMED 1921-08-21 03:00:00 NR 29.7991 121.620 main 0 0 __________P___ -1 29.7991 121.620 4 8 270
1921224N14148 1921 38 WP MM NOT_NAMED 1921-08-21 06:00:00 NR 29.7992 121.176 main 0 0 __________P___ -1 29.7992 121.176 4 8 270
1921224N14148 1921 38 WP MM NOT_NAMED 1921-08-21 09:00:00 NR 29.7998 120.743 main 0 0 __________P___ -1 29.7998 120.743 4 7 270
1921224N14148 1921 38 WP MM NOT_NAMED 1921-08-21 10:00:00 NR 29.8000 120.600 main 0 0 __________O___ -1 29.8000 120.600 4 7 270
1921224N14148 1921 38 WP MM NOT_NAMED 1921-08-21 12:00:00 NR 29.8005 120.315 main 0 0 __________P___ -1 29.8005 120.315 4 7 270
1921224N14148 1921 38 WP MM NOT_NAMED 1921-08-21 15:00:00 NR 29.8011 119.889 main 0 0 __________P___ -1 29.8011 119.889 4 7 270
1921224N14148 1921 38 WP MM NOT_NAMED 1921-08-21 18:00:00 NR 29.8012 119.465 main 0 0 __________P___ -1 29.8012 119.465 4 7 270
1921224N14148 1921 38 WP MM NOT_NAMED 1921-08-21 21:00:00 NR 29.8005 119.041 main 0 0 __________P___ -1 29.8005 119.041 4 7 270
1921224N14148 1921 38 WP MM NOT_NAMED 1921-08-21 22:00:00 NR 29.8000 118.900 main 0 __________O___ -1 29.8000 118.900 7 7 270

デジタル台風データ・検索

IBTrACS Databaseについて

本データベースは、米国NOAAが公開する1842年以降の世界の熱帯低気圧のベストトラックデータアーカイブInternational Best Track Archive for Climate Stewardship (IBTrACS)を、ウェブで閲覧しやすい形式に変換したものです。

最終更新日:2021-12-03